Time;durP1;ratioP1;P1;durP2;ratioP2;P2;SDS_P1;SDS_P2;PMS_P1;PMS_P2;Temp;Humidity;BMP_temperature;BMP_pressure;BME280_temperature;BME280_humidity;BME280_pressure;Samples;Min_cycle;Max_cycle;Signal;HPM_P1;HPM_P2
2022/03/11 00:00:49;;;;;;;6.90;2.05;;;;;;;;;;5044572;28;20029;-79
2022/03/11 00:03:16;;;;;;;16.13;3.08;;;;;;;;;;5040938;28;20040;-81
2022/03/11 00:05:42;;;;;;;8.30;3.00;;;;;;;;;;5050982;28;20078;-80
2022/03/11 00:08:08;;;;;;;7.90;2.35;;;;;;;;;;5051095;28;20597;-81
2022/03/11 00:10:34;;;;;;;10.95;4.10;;;;;;;;;;5050472;28;20120;-80
2022/03/11 00:12:59;;;;;;;12.48;5.13;;;-1.40;99.90;;;;;;5050074;28;20070;-79
2022/03/11 00:15:25;;;;;;;9.25;4.47;;;;;;;;;;5046361;28;20040;-81
2022/03/11 00:17:51;;;;;;;16.70;5.68;;;;;;;;;;5052286;28;20029;-80
2022/03/11 00:20:21;;;;;;;13.48;6.30;;;;;;;;;;5048963;28;20056;-83
2022/03/11 00:22:50;;;;;;;15.77;6.95;;;;;;;;;;5050478;28;20123;-81
2022/03/11 00:25:16;;;;;;;13.20;6.68;;;;;;;;;;5061995;28;20040;-83
2022/03/11 00:27:43;;;;;;;10.43;4.00;;;;;;;;;;5040667;28;20025;-78
2022/03/11 00:30:09;;;;;;;5.90;3.60;;;;;;;;;;5046871;28;20040;-80
2022/03/11 00:32:35;;;;;;;10.77;4.35;;;;;;;;;;5053253;28;20085;-84
2022/03/11 00:35:01;;;;;;;7.43;2.30;;;;;;;;;;5055757;28;20025;-80
2022/03/11 00:37:27;;;;;;;6.78;2.88;;;;;;;;;;5049460;28;20024;-81
2022/03/11 00:39:53;;;;;;;5.75;2.78;;;;;;;;;;5053392;28;20028;-79
2022/03/11 00:42:19;;;;;;;9.23;3.25;;;;;;;;;;5048883;28;20045;-85
2022/03/11 00:44:45;;;;;;;3.90;2.67;;;;;;;;;;5049550;28;20052;-81
2022/03/11 00:47:11;;;;;;;10.35;3.28;;;;;;;;;;5044283;28;20025;-82
2022/03/11 00:49:38;;;;;;;7.43;3.20;;;;;;;;;;5044306;28;20024;-82
2022/03/11 00:52:04;;;;;;;7.78;4.60;;;;;;;;;;5054019;28;20098;-81
2022/03/11 00:54:30;;;;;;;8.10;4.10;;;;;;;;;;5054003;28;20032;-80
2022/03/11 00:56:56;;;;;;;8.00;3.13;;;;;;;;;;5051871;28;20045;-80
2022/03/11 00:59:23;;;;;;;7.22;2.45;;;;;;;;;;5051105;28;20128;-81
2022/03/11 01:01:49;;;;;;;7.85;3.40;;;;;;;;;;5047137;28;20071;-82
2022/03/11 01:04:15;;;;;;;12.98;5.35;;;;;;;;;;5044068;28;20060;-84
2022/03/11 01:06:41;;;;;;;10.02;4.65;;;;;;;;;;5041221;28;20036;-83
2022/03/11 01:09:07;;;;;;;16.25;5.03;;;;;;;;;;5044638;28;20196;-81
2022/03/11 01:11:34;;;;;;;9.38;3.92;;;;;;;;;;5052746;28;20092;-83
2022/03/11 01:14:00;;;;;;;7.93;3.75;;;;;;;;;;5049866;28;20025;-81
2022/03/11 01:16:26;;;;;;;5.70;3.25;;;;;;;;;;5048890;28;20025;-81
2022/03/11 01:18:52;;;;;;;11.23;3.90;;;;;;;;;;5050167;28;20729;-83
2022/03/11 01:21:18;;;;;;;15.93;4.05;;;;;;;;;;5050385;28;20037;-80
2022/03/11 01:23:44;;;;;;;22.15;8.75;;;;;;;;;;5049961;28;20028;-82
2022/03/11 01:26:11;;;;;;;11.85;4.88;;;;;;;;;;5041893;28;20093;-79
2022/03/11 01:28:41;;;;;;;8.20;3.55;;;;;;;;;;5049758;28;20028;-80
2022/03/11 01:31:07;;;;;;;10.65;4.78;;;;;;;;;;5049534;28;20041;-81
2022/03/11 01:33:33;;;;;;;7.88;2.92;;;;;;;;;;5050981;28;20150;-80
2022/03/11 01:35:59;;;;;;;14.30;4.85;;;;;;;;;;5045363;28;20119;-80
2022/03/11 01:38:25;;;;;;;12.20;4.50;;;;;;;;;;5049140;28;20032;-78
2022/03/11 01:40:51;;;;;;;11.88;5.00;;;;;;;;;;5051533;28;20024;-79
2022/03/11 01:43:18;;;;;;;8.73;4.55;;;;;;;;;;5046183;28;20504;-80
2022/03/11 01:45:44;;;;;;;14.35;5.45;;;-1.20;99.90;;;;;;5049326;28;20630;-81
2022/03/11 01:48:11;;;;;;;9.32;5.20;;;;;;;;;;5047584;28;20049;-82
2022/03/11 01:50:40;;;;;;;9.52;4.80;;;;;;;;;;5055802;28;20049;-80
2022/03/11 01:53:10;;;;;;;10.70;4.70;;;;;;;;;;5049768;28;20130;-83
2022/03/11 01:55:36;;;;;;;8.98;4.07;;;;;;;;;;5050289;28;20099;-85
2022/03/11 01:58:03;;;;;;;9.10;5.00;;;-1.00;99.90;;;;;;5046841;28;20024;-80
2022/03/11 02:00:30;;;;;;;6.25;4.10;;;;;;;;;;5051011;28;20094;-82
2022/03/11 02:02:56;;;;;;;8.07;4.70;;;;;;;;;;5048506;28;20052;-81
2022/03/11 02:05:22;;;;;;;11.68;5.45;;;;;;;;;;5049806;28;20055;-80
2022/03/11 02:07:49;;;;;;;13.75;4.95;;;;;;;;;;5051361;28;20123;-80
2022/03/11 02:10:15;;;;;;;10.07;5.30;;;;;;;;;;5055329;28;20059;-80
2022/03/11 02:12:42;;;;;;;11.35;5.40;;;;;;;;;;5049748;28;20024;-80
2022/03/11 02:15:09;;;;;;;11.10;3.35;;;;;;;;;;5048468;28;20369;-83
2022/03/11 02:17:35;;;;;;;6.82;5.38;;;;;;;;;;5051397;28;20416;-81
2022/03/11 02:20:02;;;;;;;10.63;5.97;;;;;;;;;;5050421;28;20035;-81
2022/03/11 02:22:28;;;;;;;8.45;4.95;;;;;;;;;;5055196;28;20219;-79
2022/03/11 02:24:54;;;;;;;11.20;5.00;;;;;;;;;;5051902;28;20442;-86
2022/03/11 02:27:21;;;;;;;9.38;5.30;;;;;;;;;;5048737;28;20078;-80
2022/03/11 02:29:47;;;;;;;9.63;3.42;;;;;;;;;;5045672;28;20033;-81
2022/03/11 02:32:13;;;;;;;10.05;4.80;;;;;;;;;;5048594;28;20036;-85
2022/03/11 02:34:40;;;;;;;11.95;4.72;;;;;;;;;;5053573;28;20509;-80
2022/03/11 02:37:06;;;;;;;5.22;4.05;;;;;;;;;;5054812;28;20033;-81
2022/03/11 02:39:32;;;;;;;8.07;2.65;;;;;;;;;;5048023;28;20028;-78
2022/03/11 02:42:00;;;;;;;8.93;4.50;;;;;;;;;;5049419;28;20043;-81
2022/03/11 02:44:29;;;;;;;10.15;4.13;;;;;;;;;;5048543;28;20029;-80
2022/03/11 02:46:55;;;;;;;7.38;2.78;;;;;;;;;;5054198;28;20045;-80
2022/03/11 02:49:21;;;;;;;10.20;3.92;;;;;;;;;;5049812;28;20434;-81
2022/03/11 02:51:47;;;;;;;16.58;5.95;;;;;;;;;;5050351;28;20071;-80
2022/03/11 02:54:13;;;;;;;16.33;4.85;;;;;;;;;;5048467;28;20047;-79
2022/03/11 02:56:39;;;;;;;14.13;4.60;;;;;;;;;;5044437;28;20024;-81
2022/03/11 02:59:05;;;;;;;14.20;4.35;;;;;;;;;;5044915;28;20041;-79
2022/03/11 03:01:32;;;;;;;5.43;3.63;;;;;;;;;;5055170;28;20493;-81
2022/03/11 03:03:58;;;;;;;8.88;4.63;;;;;;;;;;5053537;28;20025;-80
2022/03/11 03:06:24;;;;;;;12.20;4.55;;;;;;;;;;5057322;28;20029;-79
2022/03/11 03:08:50;;;;;;;9.52;4.90;;;;;;;;;;5059751;28;20218;-79
2022/03/11 03:11:16;;;;;;;10.27;4.25;;;;;;;;;;5055328;28;20036;-80
2022/03/11 03:13:41;;;;;;;11.15;5.35;;;;;;;;;;5055692;28;20489;-82
2022/03/11 03:16:07;;;;;;;8.25;4.43;;;;;;;;;;5051135;28;20127;-79
2022/03/11 03:18:33;;;;;;;11.07;4.55;;;;;;;;;;5054038;28;20040;-81
2022/03/11 03:20:59;;;;;;;15.35;4.60;;;;;;;;;;5054682;28;20542;-80
2022/03/11 03:23:26;;;;;;;10.18;4.00;;;;;;;;;;5049201;28;20072;-81
2022/03/11 03:25:53;;;;;;;7.82;3.15;;;;;;;;;;5050215;28;20025;-79
2022/03/11 03:28:19;;;;;;;10.20;4.03;;;;;;;;;;5056447;28;20172;-82
2022/03/11 03:30:45;;;;;;;10.20;4.95;;;;;;;;;;5051453;28;20061;-81
2022/03/11 03:33:11;;;;;;;6.43;2.67;;;;;;;;;;5056228;28;20083;-82
2022/03/11 03:35:38;;;;;;;11.27;4.32;;;;;;;;;;5053510;28;20025;-78
2022/03/11 03:38:04;;;;;;;14.98;5.03;;;;;;;;;;5055959;28;20028;-80
2022/03/11 03:40:30;;;;;;;8.75;3.55;;;;;;;;;;5054380;28;20017;-81
2022/03/11 03:42:56;;;;;;;21.05;4.63;;;;;;;;;;5050702;28;20493;-79
2022/03/11 03:45:22;;;;;;;8.20;2.97;;;;;;;;;;5050225;28;20036;-82
2022/03/11 03:47:48;;;;;;;9.27;4.05;;;;;;;;;;5055378;28;20551;-81
2022/03/11 03:50:14;;;;;;;12.45;4.60;;;;;;;;;;5054203;28;20013;-81
2022/03/11 03:52:40;;;;;;;8.73;4.15;;;;;;;;;;5054221;28;20028;-80
2022/03/11 03:55:07;;;;;;;9.07;5.22;;;-1.50;99.90;;;;;;5059857;28;20021;-79
2022/03/11 03:57:33;;;;;;;14.65;5.07;;;;;;;;;;5065389;28;20418;-80
2022/03/11 03:59:59;;;;;;;6.13;4.50;;;;;;;;;;5053683;28;20481;-80
2022/03/11 04:02:25;;;;;;;9.82;4.18;;;;;;;;;;5052475;28;20079;-81
2022/03/11 04:04:51;;;;;;;10.55;5.10;;;;;;;;;;5044240;28;20385;-82
2022/03/11 04:07:17;;;;;;;9.07;3.85;;;;;;;;;;5051929;28;20036;-80
2022/03/11 04:09:43;;;;;;;7.05;3.50;;;;;;;;;;5051640;28;20053;-79
2022/03/11 04:12:09;;;;;;;9.18;2.88;;;-1.70;99.90;;;;;;5052832;28;20480;-80
2022/03/11 04:14:35;;;;;;;7.45;3.33;;;;;;;;;;5034519;28;20036;-81
2022/03/11 04:17:01;;;;;;;6.07;2.83;;;;;;;;;;5046395;28;20025;-80
2022/03/11 04:19:27;;;;;;;9.05;4.07;;;;;;;;;;5052528;28;20033;-83
2022/03/11 04:21:53;;;;;;;8.60;3.42;;;;;;;;;;5052842;28;20036;-81
2022/03/11 04:24:21;;;;;;;10.10;4.70;;;;;;;;;;5054785;28;20508;-81
2022/03/11 04:26:47;;;;;;;10.73;4.57;;;;;;;;;;5053168;28;20045;-80
2022/03/11 04:29:13;;;;;;;8.02;4.30;;;;;;;;;;5058562;28;20060;-86
2022/03/11 04:31:39;;;;;;;10.00;3.45;;;;;;;;;;5053540;28;20490;-78
2022/03/11 04:34:05;;;;;;;9.23;3.40;;;;;;;;;;5054826;28;20024;-80
2022/03/11 04:36:38;;;;;;;5.18;2.10;;;;;;;;;;5054561;28;20033;-81
2022/03/11 04:39:08;;;;;;;6.18;4.05;;;;;;;;;;5056447;28;20049;-79
2022/03/11 04:41:34;;;;;;;8.50;4.80;;;;;;;;;;5053130;28;20148;-81
2022/03/11 04:44:00;;;;;;;10.88;4.57;;;;;;;;;;5062336;28;20189;-82
2022/03/11 04:46:26;;;;;;;7.45;3.90;;;;;;;;;;5051643;28;20127;-80
2022/03/11 04:48:52;;;;;;;8.05;2.90;;;;;;;;;;5059934;28;20100;-82
2022/03/11 04:51:18;;;;;;;9.32;4.32;;;;;;;;;;5052589;28;20990;-80
2022/03/11 04:53:44;;;;;;;5.47;3.33;;;;;;;;;;5049090;28;20133;-84
2022/03/11 04:56:10;;;;;;;3.90;2.97;;;;;;;;;;5046066;28;20120;-81
2022/03/11 04:58:36;;;;;;;8.20;5.13;;;;;;;;;;5047066;28;20415;-83
2022/03/11 05:01:03;;;;;;;6.65;3.83;;;;;;;;;;5044785;28;20069;-79
2022/03/11 05:03:28;;;;;;;3.75;2.88;;;;;;;;;;5047461;28;20090;-80
2022/03/11 05:05:54;;;;;;;20.10;4.57;;;;;;;;;;5049806;28;20025;-79
2022/03/11 05:08:20;;;;;;;5.90;3.50;;;;;;;;;;5044890;28;20619;-80
2022/03/11 05:10:46;;;;;;;9.90;5.28;;;;;;;;;;5049212;28;20021;-81
2022/03/11 05:13:12;;;;;;;25.38;9.70;;;;;;;;;;5045592;28;20044;-80
2022/03/11 05:15:39;;;;;;;22.42;8.15;;;;;;;;;;5047816;28;20033;-82
2022/03/11 05:18:05;;;;;;;8.65;4.75;;;;;;;;;;5043950;28;20121;-80
2022/03/11 05:20:31;;;;;;;7.75;4.07;;;;;;;;;;5051217;28;20036;-81
2022/03/11 05:22:57;;;;;;;9.60;4.30;;;;;;;;;;5043520;28;20047;-79
2022/03/11 05:25:23;;;;;;;6.68;3.42;;;;;;;;;;5039155;28;20021;-79
2022/03/11 05:27:49;;;;;;;10.88;3.63;;;;;;;;;;5041807;28;20412;-82
2022/03/11 05:30:15;;;;;;;6.20;3.78;;;;;;;;;;5041121;28;20028;-80
2022/03/11 05:32:46;;;;;;;6.03;4.70;;;;;;;;;;5043206;28;20082;-79
2022/03/11 05:35:12;;;;;;;9.60;4.97;;;;;;;;;;5032367;28;20032;-80
2022/03/11 05:37:38;;;;;;;7.13;4.93;;;;;;;;;;5034210;28;20160;-79
2022/03/11 05:40:05;;;;;;;8.30;4.57;;;;;;;;;;5034215;28;20454;-79
2022/03/11 05:42:31;;;;;;;10.32;4.18;;;;;;;;;;5034209;28;20033;-82
2022/03/11 05:44:57;;;;;;;8.55;5.05;;;;;;;;;;5041922;28;20023;-80
2022/03/11 05:47:23;;;;;;;6.68;3.92;;;;;;;;;;5041544;28;20029;-80
2022/03/11 05:49:49;;;;;;;10.10;5.25;;;;;;;;;;5040486;28;20169;-80
2022/03/11 05:52:15;;;;;;;8.60;4.57;;;;;;;;;;5041231;28;20650;-81
2022/03/11 05:54:41;;;;;;;12.40;4.15;;;;;;;;;;5041050;28;20028;-78
2022/03/11 05:57:07;;;;;;;9.27;3.58;;;;;;;;;;5042386;28;20448;-80
2022/03/11 05:59:33;;;;;;;8.07;3.83;;;;;;;;;;5042634;28;20029;-79
2022/03/11 06:01:59;;;;;;;8.27;4.45;;;;;;;;;;5044255;28;20458;-80
2022/03/11 06:04:25;;;;;;;26.48;3.85;;;;;;;;;;5044504;28;20104;-81
2022/03/11 06:06:51;;;;;;;13.05;7.95;;;;;;;;;;5044330;28;20662;-79
2022/03/11 06:09:17;;;;;;;14.00;6.05;;;;;;;;;;5047132;28;20017;-79
2022/03/11 06:11:43;;;;;;;12.23;5.97;;;;;;;;;;5041644;28;20033;-80
2022/03/11 06:14:09;;;;;;;15.18;6.90;;;;;;;;;;5041951;28;20658;-81
2022/03/11 06:16:35;;;;;;;9.75;4.53;;;;;;;;;;5039782;28;20025;-80
2022/03/11 06:19:02;;;;;;;9.82;5.00;;;;;;;;;;5041164;28;20041;-78
2022/03/11 06:21:29;;;;;;;13.85;5.03;;;;;;;;;;5045869;28;20036;-83
2022/03/11 06:23:56;;;;;;;17.52;6.80;;;;;;;;;;5034150;28;20086;-80
2022/03/11 06:26:23;;;;;;;6.13;4.90;;;;;;;;;;5043682;28;20026;-84
2022/03/11 06:28:48;;;;;;;12.30;5.93;;;;;;;;;;5043546;28;20032;-80
2022/03/11 06:31:15;;;;;;;17.30;7.95;;;;;;;;;;5042775;28;20020;-81
2022/03/11 06:33:41;;;;;;;39.72;10.75;;;;;;;;;;5047790;28;20497;-80
2022/03/11 06:36:07;;;;;;;35.38;11.25;;;;;;;;;;5047295;28;20017;-81
2022/03/11 06:38:33;;;;;;;19.75;7.10;;;;;;;;;;5041453;28;20029;-82
2022/03/11 06:40:59;;;;;;;22.67;9.23;;;;;;;;;;5048689;28;20025;-79
2022/03/11 06:43:37;;;;;;;11.45;5.97;;;;;;;;;;5043019;28;20076;-79
2022/03/11 06:46:03;;;;;;;16.20;6.85;;;;;;;;;;5048218;28;20073;-78
2022/03/11 06:48:29;;;;;;;27.73;10.65;;;;;;;;;;5046167;28;20053;-78
2022/03/11 06:50:55;;;;;;;19.38;6.45;;;;;;;;;;5048501;28;20041;-80
2022/03/11 06:53:25;;;;;;;26.50;7.40;;;;;;;;;;5044067;28;20404;-80
2022/03/11 06:56:00;;;;;;;13.52;6.85;;;;;;;;;;5051073;28;20033;-78
2022/03/11 06:58:28;;;;;;;12.90;5.47;;;;;;;;;;5042871;28;20036;-82
2022/03/11 07:01:03;;;;;;;13.70;4.85;;;;;;;;;;5049529;28;20025;-81
2022/03/11 07:03:30;;;;;;;15.85;3.83;;;;;;;;;;5050935;28;20036;-80
2022/03/11 07:05:56;;;;;;;10.65;4.03;;;;;;;;;;5051194;28;20037;-80
2022/03/11 07:08:22;;;;;;;5.05;2.72;;;;;;;;;;5045553;28;20131;-80
2022/03/11 07:10:48;;;;;;;6.70;3.95;;;;;;;;;;5051154;28;20029;-79
2022/03/11 07:13:14;;;;;;;9.15;3.00;;;;;;;;;;5045375;28;20032;-82
2022/03/11 07:15:40;;;;;;;4.72;2.67;;;;;;;;;;5049304;28;20485;-80
2022/03/11 07:18:06;;;;;;;9.43;3.63;;;;;;;;;;5043361;28;20084;-81
2022/03/11 07:20:32;;;;;;;6.22;1.80;;;;;;;;;;5048320;28;20029;-82
2022/03/11 07:22:58;;;;;;;5.13;2.53;;;;;;;;;;5040155;28;20069;-80
2022/03/11 07:25:24;;;;;;;7.97;3.13;;;;;;;;;;5047533;28;20499;-79
2022/03/11 07:27:52;;;;;;;5.10;2.72;;;;;;;;;;5048426;28;20127;-81
2022/03/11 07:30:18;;;;;;;6.25;2.80;;;;;;;;;;5049874;28;20025;-79
2022/03/11 07:32:45;;;;;;;6.00;3.22;;;;;;;;;;5051012;28;20416;-82
2022/03/11 07:35:12;;;;;;;8.45;2.05;;;;;;;;;;5045999;28;20032;-79
2022/03/11 07:37:39;;;;;;;8.00;2.88;;;;;;;;;;5042401;28;20029;-80
2022/03/11 07:40:05;;;;;;;7.47;2.55;;;;;;;;;;5048415;28;20038;-79
2022/03/11 07:42:31;;;;;;;5.40;2.33;;;;;;;;;;5044410;28;20044;-80
2022/03/11 07:44:57;;;;;;;3.17;2.17;;;;;;;;;;5050968;28;20033;-79
2022/03/11 07:47:23;;;;;;;7.10;2.63;;;;;;;;;;5053228;28;20065;-80
2022/03/11 07:49:55;;;;;;;4.85;2.42;;;;;;;;;;5046718;28;20025;-82
2022/03/11 07:52:22;;;;;;;6.55;2.97;;;;;;;;;;5040313;28;20342;-81
2022/03/11 07:54:48;;;;;;;4.00;2.67;;;;;;;;;;5040145;28;20480;-80
2022/03/11 07:57:14;;;;;;;5.35;2.38;;;;;;;;;;5037107;28;20036;-82
2022/03/11 07:59:41;;;;;;;5.28;2.78;;;;;;;;;;5047951;28;20060;-80
2022/03/11 08:02:08;;;;;;;6.43;2.85;;;;;;;;;;5046558;28;20045;-82
2022/03/11 08:04:34;;;;;;;5.38;2.67;;;;;;;;;;5042613;28;20032;-80
2022/03/11 08:07:06;;;;;;;5.82;2.47;;;;;;;;;;5047285;28;20032;-80
2022/03/11 08:09:32;;;;;;;7.00;2.80;;;;;;;;;;5044577;28;20021;-78
2022/03/11 08:11:58;;;;;;;8.10;3.17;;;;;;;;;;5045836;28;20036;-80
2022/03/11 08:14:24;;;;;;;8.32;2.65;;;;;;;;;;5042087;28;20033;-81
2022/03/11 08:16:50;;;;;;;6.05;2.05;;;;;;;;;;5044830;28;20091;-83
2022/03/11 08:19:16;;;;;;;6.60;3.05;;;;;;;;;;5043420;28;20033;-80
2022/03/11 08:21:41;;;;;;;5.20;1.92;;;;;;;;;;5053180;28;20040;-81
2022/03/11 08:24:08;;;;;;;7.32;3.13;;;;;;;;;;5050057;28;20067;-81
2022/03/11 08:26:34;;;;;;;4.70;2.03;;;;;;;;;;5049214;28;20039;-81
2022/03/11 08:28:59;;;;;;;7.95;3.22;;;;;;;;;;5050334;28;20719;-79
2022/03/11 08:31:25;;;;;;;3.55;1.83;;;;;;;;;;5050956;28;20451;-80
2022/03/11 08:33:51;;;;;;;5.95;2.67;;;;;;;;;;5042021;28;20029;-81
2022/03/11 08:36:17;;;;;;;4.75;1.80;;;;;;;;;;5045000;28;20204;-80
2022/03/11 08:38:43;;;;;;;7.15;3.00;;;;;;;;;;5050461;28;20021;-80
2022/03/11 08:41:10;;;;;;;7.00;3.45;;;;;;;;;;5041145;28;20033;-81
2022/03/11 08:43:38;;;;;;;5.45;2.80;;;;;;;;;;5040385;28;20029;-80
2022/03/11 08:46:04;;;;;;;3.38;2.00;;;;;;;;;;5047082;28;23668;-81
2022/03/11 08:48:30;;;;;;;5.95;2.55;;;;;;;;;;5045960;28;20517;-80
2022/03/11 08:50:56;;;;;;;7.65;2.83;;;;;;;;;;5044345;28;20029;-80
2022/03/11 08:53:22;;;;;;;3.88;2.15;;;;;;;;;;5052827;28;20035;-80
2022/03/11 08:55:48;;;;;;;7.50;2.75;;;;;;;;;;5053530;28;20033;-80
2022/03/11 08:58:14;;;;;;;8.85;3.40;;;;;;;;;;5032399;28;20097;-80
2022/03/11 09:00:41;;;;;;;6.50;3.00;;;;;;;;;;5053002;28;20025;-79
2022/03/11 09:03:07;;;;;;;6.85;3.05;;;;;;;;;;5053174;28;20042;-79
2022/03/11 09:05:33;;;;;;;4.22;2.10;;;;;;;;;;5049569;28;20039;-79
2022/03/11 09:07:59;;;;;;;7.13;2.42;;;;;;;;;;5054831;28;20025;-79
2022/03/11 09:10:25;;;;;;;9.32;2.72;;;;;;;;;;5050429;28;20033;-80
2022/03/11 09:12:51;;;;;;;9.52;3.35;;;;;;;;;;5052479;28;20040;-79
2022/03/11 09:15:18;;;;;;;4.68;1.95;;;;;;;;;;5049640;28;20024;-78
2022/03/11 09:17:45;;;;;;;6.38;2.80;;;;;;;;;;5054394;28;20538;-80
2022/03/11 09:20:12;;;;;;;5.57;2.40;;;;;;;;;;5055809;28;20033;-80
2022/03/11 09:22:39;;;;;;;6.15;2.47;;;;;;;;;;5046078;28;20102;-79
2022/03/11 09:25:07;;;;;;;7.82;2.95;;;;;;;;;;5050862;28;20033;-80
2022/03/11 09:27:33;;;;;;;7.75;2.40;;;;;;;;;;5051590;28;20044;-79
2022/03/11 09:29:59;;;;;;;5.40;1.98;;;;;;;;;;5056189;28;20086;-80
2022/03/11 09:32:26;;;;;;;7.35;3.10;;;;;;;;;;5050346;28;20032;-79
2022/03/11 09:34:52;;;;;;;5.85;2.65;;;;;;;;;;5036641;28;20037;-79
2022/03/11 09:37:18;;;;;;;7.05;3.30;;;;;;;;;;5042758;28;20021;-78
2022/03/11 09:39:45;;;;;;;9.60;2.78;;;;;;;;;;5043468;28;20093;-80
2022/03/11 09:42:11;;;;;;;5.72;2.90;;;;;;;;;;5045397;28;20033;-80
2022/03/11 09:44:39;;;;;;;6.00;2.63;;;;;;;;;;5044364;28;20032;-78
2022/03/11 09:47:06;;;;;;;7.47;3.10;;;7.40;84.90;;;;;;5047841;28;20068;-78
2022/03/11 09:49:35;;;;;;;7.95;3.40;;;;;;;;;;5046714;28;20671;-80
2022/03/11 09:52:01;;;;;;;5.75;2.90;;;;;;;;;;5043945;28;20501;-79
2022/03/11 09:54:27;;;;;;;9.27;2.42;;;;;;;;;;5048379;28;20025;-79
2022/03/11 09:56:53;;;;;;;8.60;3.40;;;6.70;80.40;;;;;;5047673;28;20498;-79
2022/03/11 09:59:19;;;;;;;10.13;3.28;;;;;;;;;;5048008;28;20079;-79
2022/03/11 10:01:45;;;;;;;7.40;2.92;;;;;;;;;;5042584;28;20136;-80
2022/03/11 10:04:11;;;;;;;5.22;2.28;;;;;;;;;;5044906;28;20021;-79
2022/03/11 10:06:41;;;;;;;5.78;1.90;;;;;;;;;;5048041;28;20032;-80
2022/03/11 10:09:30;;;;;;;6.57;2.90;;;;;;;;;;5053093;28;20017;-78
2022/03/11 10:11:56;;;;;;;6.90;2.80;;;;;;;;;;5049944;28;20025;-78
2022/03/11 10:14:33;;;;;;;6.47;2.97;;;;;;;;;;5047900;28;20027;-79
2022/03/11 10:16:59;;;;;;;8.45;3.20;;;;;;;;;;5048061;28;20052;-78
2022/03/11 10:19:25;;;;;;;6.30;3.17;;;;;;;;;;5051075;28;20109;-79
2022/03/11 10:21:51;;;;;;;4.18;2.72;;;;;;;;;;5048816;28;20143;-78
2022/03/11 10:24:18;;;;;;;7.60;3.03;;;;;;;;;;5048078;28;20599;-78
2022/03/11 10:26:49;;;;;;;6.82;3.38;;;;;;;;;;5043321;28;20089;-78
2022/03/11 10:29:17;;;;;;;7.43;2.70;;;;;;;;;;5041911;28;20042;-78
2022/03/11 10:31:45;;;;;;;6.43;2.40;;;;;;;;;;5046052;28;20044;-78
2022/03/11 10:34:11;;;;;;;7.55;3.05;;;;;;;;;;5047537;28;20026;-79
2022/03/11 10:36:39;;;;;;;4.22;2.58;;;;;;;;;;5051503;28;20037;-79
2022/03/11 10:39:15;;;;;;;5.97;2.15;;;;;;;;;;5049296;28;20029;-78
2022/03/11 10:41:41;;;;;;;10.48;3.60;;;;;;;;;;5038015;28;20036;-80
2022/03/11 10:44:09;;;;;;;8.93;4.18;;;;;;;;;;5043506;28;20034;-79
2022/03/11 10:46:35;;;;;;;6.60;3.05;;;;;;;;;;5048854;28;20045;-79
2022/03/11 10:49:01;;;;;;;8.48;3.28;;;;;;;;;;5056248;28;20026;-79
2022/03/11 10:51:33;;;;;;;6.13;2.90;;;;;;;;;;5049781;28;20762;-80
2022/03/11 10:54:04;;;;;;;6.22;2.50;;;;;;;;;;5050643;28;20048;-79
2022/03/11 10:56:39;;;;;;;6.97;2.63;;;;;;;;;;5054259;28;20037;-80
2022/03/11 10:59:05;;;;;;;6.63;2.75;;;;;;;;;;5050404;28;20037;-80
2022/03/11 11:01:36;;;;;;;6.20;2.67;;;;;;;;;;5054702;28;20374;-79
2022/03/11 11:04:02;;;;;;;8.80;3.25;;;;;;;;;;5046122;28;20037;-79
2022/03/11 11:06:28;;;;;;;9.90;4.22;;;;;;;;;;5039658;28;20036;-80
2022/03/11 11:08:55;;;;;;;5.97;2.70;;;;;;;;;;5046363;28;20033;-80
2022/03/11 11:11:21;;;;;;;8.73;2.88;;;;;;;;;;5046478;28;20772;-80
2022/03/11 11:13:47;;;;;;;9.40;3.42;;;;;;;;;;5044707;28;20045;-79
2022/03/11 11:16:13;;;;;;;6.13;2.67;;;;;;;;;;5051144;28;20036;-78
2022/03/11 11:18:44;;;;;;;6.97;3.30;;;;;;;;;;5041155;28;20025;-79
2022/03/11 11:21:11;;;;;;;8.05;3.38;;;;;;;;;;5042403;28;20060;-79
2022/03/11 11:23:37;;;;;;;10.25;3.10;;;;;;;;;;5038224;28;20093;-80
2022/03/11 11:26:03;;;;;;;6.63;2.90;;;;;;;;;;5046949;28;20041;-79
2022/03/11 11:28:29;;;;;;;6.38;3.05;;;;;;;;;;5045629;28;20025;-80
2022/03/11 11:30:55;;;;;;;6.75;2.80;;;;;;;;;;5047108;28;20064;-80
2022/03/11 11:33:22;;;;;;;9.90;3.42;;;10.50;73.10;;;;;;5046838;28;20021;-80
2022/03/11 11:35:56;;;;;;;8.18;2.78;;;10.70;72.60;;;;;;5050132;28;20027;-79
2022/03/11 11:38:34;;;;;;;6.55;3.08;;;;;;;;;;5044248;28;20053;-80
2022/03/11 11:41:02;;;;;;;7.50;2.75;;;;;;;;;;5047615;28;20032;-79
2022/03/11 11:43:30;;;;;;;6.15;3.08;;;;;;;;;;5046503;28;20033;-79
2022/03/11 11:46:02;;;;;;;8.60;3.47;;;;;;;;;;5053020;28;20416;-79
2022/03/11 11:48:45;;;;;;;7.82;3.00;;;;;;;;;;5054086;28;20027;-79
2022/03/11 11:51:12;;;;;;;9.30;3.17;;;;;;;;;;5044797;28;20068;-79
2022/03/11 11:53:40;;;;;;;8.10;3.58;;;;;;;;;;5044367;28;20434;-80
2022/03/11 11:56:25;;;;;;;5.03;2.40;;;;;;;;;;5045317;28;20029;-80
2022/03/11 11:58:52;;;;;;;5.82;2.88;;;;;;;;;;5048294;28;20028;-79
2022/03/11 12:01:36;;;;;;;7.65;3.08;;;;;;;;;;5051649;28;20199;-79
2022/03/11 12:04:21;;;;;;;6.85;3.35;;;;;;;;;;5051117;28;20029;-80
2022/03/11 12:06:55;;;;;;;8.45;3.17;;;;;;;;;;5054246;28;20368;-80
2022/03/11 12:09:42;;;;;;;6.95;3.65;;;;;;;;;;5049241;28;20047;-79
2022/03/11 12:12:21;;;;;;;9.07;3.60;;;;;;;;;;5047287;28;20032;-79
2022/03/11 12:17:45;;;;;;;6.78;3.50;;;;;;;;;;5039418;28;20040;-79
2022/03/11 12:23:00;;;;;;;6.72;2.63;;;;;;;;;;5044660;28;20088;-80
2022/03/11 12:25:37;;;;;;;7.13;3.47;;;;;;;;;;5044450;28;20086;-79
2022/03/11 12:28:21;;;;;;;12.07;4.03;;;;;;;;;;5042039;28;20137;-80
2022/03/11 12:30:47;;;;;;;8.23;3.42;;;;;;;;;;5047008;28;20029;-79
2022/03/11 12:33:20;;;;;;;8.02;3.35;;;;;;;;;;5036703;28;20029;-76
2022/03/11 12:35:48;;;;;;;10.13;3.33;;;11.20;67.50;;;;;;5032926;28;20118;-77
2022/03/11 12:38:14;;;;;;;9.38;2.97;;;;;;;;;;5038982;28;20041;-80
2022/03/11 12:40:40;;;;;;;9.23;3.53;;;;;;;;;;5048755;28;20029;-79
2022/03/11 12:43:09;;;;;;;9.68;3.58;;;;;;;;;;5049206;28;20037;-79
2022/03/11 12:46:04;;;;;;;7.90;3.42;;;12.40;68.80;;;;;;5048467;28;20496;-79
2022/03/11 12:48:33;;;;;;;7.32;3.00;;;;;;;;;;5037317;28;20120;-79
2022/03/11 12:50:59;;;;;;;9.52;3.42;;;;;;;;;;5044768;28;20033;-79
2022/03/11 12:53:25;;;;;;;10.02;3.28;;;;;;;;;;5034078;28;20036;-79
2022/03/11 12:55:53;;;;;;;10.38;4.72;;;;;;;;;;5043983;28;20029;-79
2022/03/11 12:58:25;;;;;;;6.97;3.17;;;;;;;;;;5050420;28;20036;-79
2022/03/11 13:00:53;;;;;;;8.93;3.53;;;;;;;;;;5052936;28;20485;-79
2022/03/11 13:03:24;;;;;;;9.65;3.92;;;;;;;;;;5050950;28;20323;-79
2022/03/11 13:05:50;;;;;;;8.80;3.25;;;;;;;;;;5050401;28;20040;-79
2022/03/11 13:08:18;;;;;;;7.13;3.75;;;;;;;;;;5045800;28;20032;-78
2022/03/11 13:10:47;;;;;;;12.80;4.22;;;;;;;;;;5045395;28;20033;-78
2022/03/11 13:13:13;;;;;;;10.00;3.22;;;;;;;;;;5043255;28;20158;-78
2022/03/11 13:15:41;;;;;;;8.38;3.45;;;;;;;;;;5045535;28;20113;-78
2022/03/11 13:18:26;;;;;;;7.53;3.83;;;;;;;;;;5040999;28;20135;-79
2022/03/11 13:20:52;;;;;;;8.88;3.83;;;;;;;;;;5040428;28;20033;-79
2022/03/11 13:23:29;;;;;;;5.55;3.03;;;;;;;;;;5051168;28;20041;-78
2022/03/11 13:25:55;;;;;;;9.90;4.22;;;;;;;;;;5050035;28;20040;-78
2022/03/11 13:28:23;;;;;;;8.10;3.42;;;;;;;;;;5051364;28;20029;-79
2022/03/11 13:30:49;;;;;;;6.68;3.45;;;;;;;;;;5052141;28;20059;-79
2022/03/11 13:33:20;;;;;;;7.10;3.78;;;;;;;;;;5054749;28;20033;-79
2022/03/11 13:35:47;;;;;;;6.35;3.00;;;;;;;;;;5048462;28;20033;-79
2022/03/11 13:38:33;;;;;;;9.85;3.95;;;;;;;;;;5050248;28;20029;-79
2022/03/11 13:40:59;;;;;;;7.75;2.90;;;;;;;;;;5054621;28;20041;-79
2022/03/11 13:43:25;;;;;;;13.18;3.72;;;;;;;;;;5049171;28;20080;-80
2022/03/11 13:45:52;;;;;;;7.60;4.35;;;;;;;;;;5050204;28;20036;-78
2022/03/11 13:48:20;;;;;;;10.82;3.90;;;;;;;;;;5051343;28;20021;-79
2022/03/11 13:50:46;;;;;;;9.32;3.80;;;;;;;;;;5053084;28;20079;-79
2022/03/11 13:53:13;;;;;;;7.30;3.95;;;;;;;;;;5046218;28;20075;-79
2022/03/11 13:55:40;;;;;;;8.02;4.28;;;;;;;;;;5057052;28;20025;-79
2022/03/11 13:58:13;;;;;;;6.10;2.97;;;;;;;;;;5042452;28;20114;-79
2022/03/11 14:00:39;;;;;;;11.65;3.95;;;;;;;;;;5044027;28;20059;-79
2022/03/11 14:03:14;;;;;;;8.65;4.05;;;;;;;;;;5041495;28;20049;-77
2022/03/11 14:05:40;;;;;;;13.07;4.35;;;;;;;;;;5042567;28;20025;-81
2022/03/11 14:08:07;;;;;;;10.02;3.78;;;;;;;;;;5052812;28;20428;-81
2022/03/11 14:10:40;;;;;;;8.75;3.70;;;;;;;;;;5053101;28;20663;-81
2022/03/11 14:13:07;;;;;;;8.95;3.55;;;;;;;;;;5049183;28;20021;-80
2022/03/11 14:15:34;;;;;;;6.70;3.10;;;;;;;;;;5050273;28;20055;-81
2022/03/11 14:18:00;;;;;;;9.18;3.63;;;;;;;;;;5052518;28;20414;-80
2022/03/11 14:20:26;;;;;;;9.10;3.40;;;;;;;;;;5042069;28;20037;-84
2022/03/11 14:22:52;;;;;;;9.68;3.70;;;;;;;;;;5054446;28;20025;-81
2022/03/11 14:25:18;;;;;;;8.05;3.80;;;;;;;;;;5053554;28;20027;-80
2022/03/11 14:27:44;;;;;;;5.82;3.38;;;;;;;;;;5054205;28;20022;-80
2022/03/11 14:30:10;;;;;;;9.60;3.72;;;;;;;;;;5059323;28;20029;-79
2022/03/11 14:32:36;;;;;;;9.68;4.20;;;;;;;;;;5051965;28;20033;-80
2022/03/11 14:35:03;;;;;;;5.50;3.08;;;;;;;;;;5040999;28;20384;-79
2022/03/11 14:37:29;;;;;;;7.80;3.72;;;;;;;;;;5052368;28;20029;-79
2022/03/11 14:39:55;;;;;;;6.85;3.15;;;12.70;64.60;;;;;;5038774;28;20039;-78
2022/03/11 14:42:21;;;;;;;10.18;2.92;;;;;;;;;;5035748;28;20044;-77